createdAt,value
2023-05-10T00:02:51.612Z,13.00
2023-05-10T00:06:53.897Z,12.94
2023-05-10T00:10:55.654Z,12.95
2023-05-10T00:14:57.300Z,12.98
2023-05-10T00:18:59.244Z,12.99
2023-05-10T00:23:03.501Z,13.02
2023-05-10T00:38:02.145Z,13.14
2023-05-10T00:47:50.858Z,13.19
2023-05-10T00:52:05.849Z,13.22
2023-05-10T00:56:08.258Z,13.20
2023-05-10T01:00:12.407Z,13.16
2023-05-10T01:08:51.677Z,13.12
2023-05-10T01:13:00.795Z,13.11
2023-05-10T01:17:33.645Z,13.07
2023-05-10T01:22:06.602Z,13.06
2023-05-10T01:26:55.533Z,13.03
2023-05-10T01:31:09.397Z,13.04
2023-05-10T01:35:24.066Z,13.00
2023-05-10T01:39:29.865Z,12.95
2023-05-10T01:43:41.211Z,12.95
2023-05-10T01:47:51.466Z,12.96
2023-05-10T01:51:58.202Z,12.93
2023-05-10T01:56:02.891Z,12.88
2023-05-10T02:00:06.196Z,12.89
2023-05-10T02:04:18.759Z,12.86
2023-05-10T02:08:23.159Z,12.86
2023-05-10T02:12:26.229Z,12.83
2023-05-10T02:16:32.030Z,12.81
2023-05-10T02:20:36.224Z,12.78
2023-05-10T02:24:39.093Z,12.77
2023-05-10T02:28:42.017Z,12.77
2023-05-10T02:32:44.320Z,12.74
2023-05-10T02:36:46.643Z,12.71
2023-05-10T02:40:49.338Z,12.72
2023-05-10T02:44:56.061Z,12.76
2023-05-10T02:48:57.826Z,12.78
2023-05-10T02:53:11.458Z,12.80
2023-05-10T02:57:20.484Z,12.77
2023-05-10T03:01:22.291Z,12.75
2023-05-10T03:05:24.558Z,12.77
2023-05-10T03:09:36.306Z,12.77
2023-05-10T03:13:44.529Z,12.74
2023-05-10T03:18:01.681Z,12.72
2023-05-10T03:22:08.901Z,12.70
2023-05-10T03:26:24.992Z,12.67
2023-05-10T03:30:29.247Z,12.61
2023-05-10T03:34:32.631Z,12.62
2023-05-10T03:38:34.475Z,12.63
2023-05-10T03:42:37.177Z,12.62
2023-05-10T03:46:39.025Z,12.60
2023-05-10T03:50:41.168Z,12.62
2023-05-10T03:54:42.993Z,12.62
2023-05-10T03:58:45.119Z,12.56
2023-05-10T04:02:47.222Z,12.58
2023-05-10T04:06:54.215Z,12.61
2023-05-10T04:16:05.436Z,12.72
2023-05-10T04:20:07.847Z,12.76
2023-05-10T04:24:09.605Z,12.80
2023-05-10T04:28:11.370Z,12.82
2023-05-10T04:32:13.402Z,12.87
2023-05-10T04:36:15.899Z,12.90
2023-05-10T04:40:19.049Z,12.88
2023-05-10T04:44:21.156Z,12.89
2023-05-10T04:48:23.499Z,12.93
2023-05-10T04:52:25.231Z,12.94
2023-05-10T05:06:22.168Z,13.07
2023-05-10T05:10:25.144Z,13.04
2023-05-10T05:14:27.681Z,13.05
2023-05-10T05:18:31.250Z,13.08
2023-05-10T05:22:33.079Z,13.12
2023-05-10T05:26:34.920Z,13.17
2023-05-10T05:30:36.769Z,13.21
2023-05-10T05:34:38.554Z,13.26
2023-05-10T05:38:40.268Z,13.35
2023-05-10T05:42:42.464Z,13.35
2023-05-10T05:46:44.272Z,13.44
2023-05-10T05:50:46.813Z,13.57
2023-05-10T05:54:48.581Z,13.68
2023-05-10T05:58:50.823Z,13.86
2023-05-10T06:02:52.521Z,13.92
2023-05-10T06:06:54.212Z,13.94
2023-05-10T06:10:55.953Z,13.97
2023-05-10T06:14:57.652Z,14.03
2023-05-10T06:18:59.292Z,14.10
2023-05-10T06:23:01.019Z,14.30
2023-05-10T06:27:03.191Z,14.44
2023-05-10T06:31:05.424Z,14.49
2023-05-10T06:35:07.960Z,14.61
2023-05-10T06:39:13.185Z,14.62
2023-05-10T06:43:15.529Z,14.62
2023-05-10T06:47:17.237Z,14.70
2023-05-10T06:51:20.995Z,14.79
2023-05-10T06:55:22.879Z,14.85
2023-05-10T06:59:25.270Z,15.00
2023-05-10T07:03:27.169Z,15.28
2023-05-10T07:07:28.995Z,15.39
2023-05-10T07:11:30.646Z,15.40
2023-05-10T07:15:32.333Z,15.28
2023-05-10T07:19:34.083Z,15.21
2023-05-10T07:23:35.830Z,15.30
2023-05-10T07:27:37.760Z,15.38
2023-05-10T07:31:39.513Z,15.53
2023-05-10T07:35:41.350Z,15.61
2023-05-10T07:39:43.021Z,15.73
2023-05-10T07:43:45.075Z,15.84
2023-05-10T07:47:46.928Z,16.09
2023-05-10T07:51:49.039Z,16.25
2023-05-10T07:55:58.124Z,16.27
2023-05-10T08:00:01.831Z,16.29
2023-05-10T08:04:03.667Z,16.24
2023-05-10T08:08:05.722Z,16.09
2023-05-10T08:12:07.494Z,15.85
2023-05-10T08:16:09.369Z,15.75
2023-05-10T08:20:11.284Z,15.48
2023-05-10T08:24:13.087Z,15.18
2023-05-10T08:28:14.822Z,15.09
2023-05-10T08:32:16.713Z,15.10
2023-05-10T08:36:22.812Z,15.11
2023-05-10T08:40:27.224Z,15.17
2023-05-10T08:44:29.771Z,15.26
2023-05-10T08:48:35.842Z,15.40
2023-05-10T08:52:41.209Z,15.73
2023-05-10T08:56:43.625Z,15.97
2023-05-10T09:00:45.528Z,16.29
2023-05-10T09:04:47.991Z,16.77
2023-05-10T09:08:49.862Z,17.27
2023-05-10T09:12:52.909Z,17.75
2023-05-10T09:16:56.334Z,18.20
2023-05-10T09:20:58.114Z,18.58
2023-05-10T09:25:13.214Z,18.66
2023-05-10T09:29:17.483Z,18.54
2023-05-10T09:33:19.624Z,17.91
2023-05-10T09:37:30.736Z,17.32
2023-05-10T09:41:32.460Z,16.87
2023-05-10T09:45:38.582Z,16.78
2023-05-10T09:49:42.746Z,16.67
2023-05-10T09:53:44.404Z,16.41
2023-05-10T09:57:47.103Z,16.11
2023-05-10T10:01:54.343Z,15.87
2023-05-10T10:05:57.084Z,15.88
2023-05-10T10:10:10.135Z,15.97
2023-05-10T10:14:13.604Z,16.00
2023-05-10T10:18:18.133Z,16.16
2023-05-10T10:22:23.495Z,16.36
2023-05-10T10:26:26.216Z,16.60
2023-05-10T10:30:34.024Z,16.77
2023-05-10T10:34:36.025Z,17.27
2023-05-10T10:39:04.734Z,17.81
2023-05-10T10:43:27.986Z,18.29
2023-05-10T10:47:32.183Z,18.24
2023-05-10T10:51:33.968Z,17.81
2023-05-10T10:55:35.796Z,17.92
2023-05-10T10:59:37.780Z,18.01
2023-05-10T11:04:16.138Z,17.69
2023-05-10T11:08:27.532Z,17.31
2023-05-10T11:12:30.617Z,16.85
2023-05-10T11:16:46.364Z,16.59
2023-05-10T11:21:20.199Z,16.61
2023-05-10T11:25:28.122Z,16.84
2023-05-10T11:29:29.961Z,17.35
2023-05-10T11:33:31.598Z,18.09
2023-05-10T11:37:35.356Z,18.73
2023-05-10T11:41:37.103Z,18.92
2023-05-10T11:45:39.306Z,19.12
2023-05-10T11:49:44.889Z,19.35
2023-05-10T11:53:46.775Z,19.69
2023-05-10T11:57:48.650Z,19.94
2023-05-10T12:01:50.554Z,20.60
2023-05-10T12:05:52.628Z,21.02
2023-05-10T12:10:07.683Z,20.76
2023-05-10T12:14:11.021Z,20.24
2023-05-10T12:18:14.667Z,20.32
2023-05-10T12:22:16.655Z,20.78
2023-05-10T12:26:18.835Z,20.95
2023-05-10T12:30:25.319Z,21.53
2023-05-10T12:34:35.096Z,22.08
2023-05-10T12:38:44.227Z,21.89
2023-05-10T12:42:46.273Z,21.96
2023-05-10T12:46:48.149Z,21.78
2023-05-10T12:50:49.980Z,21.51
2023-05-10T12:54:51.684Z,21.20
2023-05-10T12:58:53.386Z,21.38
2023-05-10T13:02:55.250Z,21.25
2023-05-10T13:07:00.031Z,20.71
2023-05-10T13:11:04.418Z,20.28
2023-05-10T13:15:07.839Z,19.96
2023-05-10T13:19:09.737Z,19.59
2023-05-10T13:23:11.787Z,19.26
2023-05-10T13:27:13.549Z,19.40
2023-05-10T13:31:15.652Z,21.18
2023-05-10T13:35:17.346Z,22.97
2023-05-10T13:39:19.236Z,23.84
2023-05-10T13:43:21.302Z,24.80
2023-05-10T13:47:24.625Z,25.57
2023-05-10T13:51:28.170Z,25.44
2023-05-10T13:55:29.909Z,24.94
2023-05-10T13:59:32.870Z,25.16
2023-05-10T14:03:34.962Z,25.60
2023-05-10T14:07:36.793Z,25.64
2023-05-10T14:11:42.802Z,25.71
2023-05-10T14:15:44.592Z,25.76
2023-05-10T14:19:46.282Z,25.94
2023-05-10T14:23:48.221Z,25.33
2023-05-10T14:27:50.134Z,24.92
2023-05-10T14:31:53.269Z,24.34
2023-05-10T14:35:56.039Z,24.01
2023-05-10T14:39:57.952Z,23.60
2023-05-10T14:43:59.822Z,23.18
2023-05-10T14:48:01.760Z,22.60
2023-05-10T14:52:04.265Z,22.39
2023-05-10T14:56:08.194Z,22.14
2023-05-10T15:00:10.336Z,21.75
2023-05-10T15:04:14.608Z,21.69
2023-05-10T15:08:16.871Z,21.73
2023-05-10T15:12:19.439Z,21.54
2023-05-10T15:16:21.254Z,21.10
2023-05-10T15:20:23.144Z,20.78
2023-05-10T15:24:24.910Z,20.63
2023-05-10T15:28:28.590Z,20.76
2023-05-10T15:32:30.398Z,20.84
2023-05-10T15:36:33.028Z,20.59
2023-05-10T15:40:36.182Z,20.55
2023-05-10T15:44:39.522Z,20.47
2023-05-10T15:48:41.161Z,20.46
2023-05-10T15:52:42.969Z,20.07
2023-05-10T15:56:44.799Z,19.97
2023-05-10T16:00:46.474Z,19.80
2023-05-10T16:04:48.154Z,19.81
2023-05-10T16:08:54.108Z,19.84
2023-05-10T16:12:56.491Z,19.69
2023-05-10T16:16:58.350Z,19.66
2023-05-10T16:21:01.085Z,19.73
2023-05-10T16:25:02.708Z,19.66
2023-05-10T16:29:04.404Z,19.49
2023-05-10T16:33:06.158Z,19.53
2023-05-10T16:37:07.914Z,19.59
2023-05-10T16:41:11.670Z,19.59
2023-05-10T16:45:13.472Z,19.52
2023-05-10T16:49:15.363Z,19.38
2023-05-10T16:53:17.071Z,19.34
2023-05-10T16:57:19.394Z,19.22
2023-05-10T17:01:22.009Z,19.12
2023-05-10T17:05:24.774Z,19.09
2023-05-10T17:09:26.444Z,18.92
2023-05-10T17:13:28.405Z,18.78
2023-05-10T17:17:30.229Z,18.66
2023-05-10T17:21:32.237Z,18.52
2023-05-10T17:25:35.487Z,18.36
2023-05-10T17:29:37.537Z,18.19
2023-05-10T17:33:39.382Z,18.06
2023-05-10T17:37:41.666Z,18.01
2023-05-10T17:41:43.306Z,17.85
2023-05-10T17:45:48.256Z,17.72
2023-05-10T17:49:50.051Z,17.56
2023-05-10T17:53:52.560Z,17.44
2023-05-10T17:57:54.343Z,17.36
2023-05-10T18:01:56.129Z,17.25
2023-05-10T18:05:58.154Z,17.14
2023-05-10T18:10:01.263Z,17.03
2023-05-10T18:14:03.024Z,16.93
2023-05-10T18:18:07.256Z,16.87
2023-05-10T18:22:10.894Z,16.71
2023-05-10T18:26:13.338Z,16.53
2023-05-10T18:30:15.278Z,16.36
2023-05-10T18:34:17.193Z,16.21
2023-05-10T18:38:19.608Z,16.02
2023-05-10T18:42:21.309Z,15.81
2023-05-10T18:46:23.045Z,15.59
2023-05-10T18:50:24.835Z,15.36
2023-05-10T18:54:27.034Z,15.16
2023-05-10T18:58:29.525Z,14.98
2023-05-10T19:02:31.475Z,14.80
2023-05-10T19:06:34.009Z,14.62
2023-05-10T19:10:35.927Z,14.46
2023-05-10T19:14:37.793Z,14.31
2023-05-10T19:18:41.205Z,14.17
2023-05-10T19:22:58.160Z,14.04
2023-05-10T19:27:05.191Z,13.90
2023-05-10T19:31:07.782Z,13.82
2023-05-10T19:35:10.503Z,13.74
2023-05-10T19:39:13.360Z,13.68
2023-05-10T19:43:15.362Z,13.59
2023-05-10T19:47:17.186Z,13.53
2023-05-10T19:51:19.079Z,13.48
2023-05-10T19:55:29.800Z,13.43
2023-05-10T19:59:31.716Z,13.37
2023-05-10T20:03:34.897Z,13.33
2023-05-10T20:07:37.325Z,13.29
2023-05-10T20:11:39.033Z,13.21
2023-05-10T20:15:40.955Z,13.17
2023-05-10T20:19:42.897Z,13.15
2023-05-10T20:23:44.661Z,13.10
2023-05-10T20:27:46.471Z,13.04
2023-05-10T20:31:51.687Z,12.96
2023-05-10T20:35:53.478Z,12.90
2023-05-10T20:39:57.193Z,12.86
2023-05-10T20:44:00.230Z,12.86
2023-05-10T20:48:03.213Z,12.86
2023-05-10T20:52:05.431Z,12.86
2023-05-10T20:56:09.198Z,12.84
2023-05-10T21:00:11.656Z,12.82
2023-05-10T21:04:13.469Z,12.79
2023-05-10T21:08:15.288Z,12.75
2023-05-10T21:12:17.060Z,12.72
2023-05-10T21:16:18.878Z,12.67
2023-05-10T21:20:21.073Z,12.63
2023-05-10T21:24:23.547Z,12.57
2023-05-10T21:28:25.351Z,12.56
2023-05-10T21:32:27.474Z,12.54
2023-05-10T21:36:29.327Z,12.52
2023-05-10T21:40:31.016Z,12.48
2023-05-10T21:44:35.924Z,12.44
2023-05-10T21:48:39.676Z,12.39
2023-05-10T21:52:41.409Z,12.34
2023-05-10T21:56:43.542Z,12.27
2023-05-10T22:00:45.343Z,12.23
2023-05-10T22:04:47.060Z,12.17
2023-05-10T22:08:49.118Z,12.14
2023-05-10T22:12:51.775Z,12.09
2023-05-10T22:16:53.628Z,12.08
2023-05-10T22:20:55.469Z,12.06
2023-05-10T22:24:57.237Z,12.03
2023-05-10T22:28:58.912Z,11.98
2023-05-10T22:33:00.745Z,11.95
2023-05-10T22:37:04.043Z,11.92
2023-05-10T22:41:05.788Z,11.86
2023-05-10T22:45:08.263Z,11.83
2023-05-10T22:49:10.187Z,11.79
2023-05-10T22:53:11.928Z,11.76
2023-05-10T22:57:13.905Z,11.74
2023-05-10T23:01:15.994Z,11.69
2023-05-10T23:05:18.075Z,11.64
2023-05-10T23:09:19.784Z,11.62
2023-05-10T23:13:21.950Z,11.59
2023-05-10T23:17:23.675Z,11.58
2023-05-10T23:21:25.464Z,11.56
2023-05-10T23:25:27.328Z,11.53
2023-05-10T23:29:29.086Z,11.52
2023-05-10T23:33:30.784Z,11.49
2023-05-10T23:37:32.596Z,11.46
2023-05-10T23:41:34.705Z,11.42
2023-05-10T23:45:38.169Z,11.38
2023-05-10T23:49:42.322Z,11.36
2023-05-10T23:53:44.012Z,11.34
2023-05-10T23:57:45.728Z,11.33
